• Join FlightAware (Why Join?)
  • Login
  • US Flag 
02:02AM EDT


 

Airport Tracker/Info


-or-


 

Live Flight TrackerFlight Track Log ✈ EJA230 ✈ 26-Jul-2013 ✈ KIAD - KHPN

Flight Track Log - Related Links

Times and Time Zones

All times are in EDT time to prevent confusion due to time zone crossing. See the EJA230 flight status page for this flight to view local times or setup timezone preferences in your user account.

Time Position Orientation Groundspeed Altitude Reporting Facility
EDT Latitude Longitude Course Direction KTS MPH feet Rate Location/Type
10:23PM 39.0667 -77.4500 90° East 277 319 4,700  Level Potomac TRACON
10:25PM 39.2108 -77.3703 23° Northeast 300 345 9,000 1,260 Climbing Washington Center
10:26PM 39.2433 -77.2744 66° East 295 339 9,000 600 Level Washington Center
10:27PM 39.2781 -77.1894 62° Northeast 295 339 10,200 1,800 Climbing Washington Center
10:28PM 39.3000 -76.8121 90° East  Level FlightAware Approximate
10:28PM 39.3125 -77.1072 62° Northeast 301 346 12,700  Level Washington Center
10:29PM 39.3308 -76.9653 80° East 319 367 15,000 1,140 Climbing Washington Center
10:30PM 39.3114 -76.8200 100° East 357 411 15,000  Level Washington Center
10:31PM 39.2900 -76.6536 99° East 424 488 15,000  Level Washington Center
10:32PM 39.2686 -76.4842 99° East 457 526 15,000 180 Level Washington Center
10:33PM 39.2447 -76.3125 100° East 474 545 15,400 1,140 Climbing Washington Center
10:34PM 39.2267 -76.1461 98° East 474 545 17,300 2,640 Climbing Washington Center
10:35PM 39.2044 -75.9906 100° East 469 540 20,700 1,860 Climbing Washington Center
10:36PM 39.2236 -75.8461 80° East 417 480 21,000 60 Climbing Washington Center
10:37PM 39.3008 -75.7364 48° Northeast 382 440 20,900  Descending Washington Center
10:38PM 39.3844 -75.6319 44° Northeast 403 464 21,000  Climbing Washington Center
10:39PM 39.4719 -75.5164 46° Northeast 419 482 21,000 300 Level Washington Center
10:40PM 39.5697 -75.3922 44° Northeast 448 516 21,700 660 Climbing Washington Center
10:42PM 39.6822 -75.0867 64° Northeast 492 566 23,000 420 Climbing New York Center
10:43PM 39.7333 -74.8847 72° East 505 581 23,000  Level New York Center
10:44PM 39.7992 -74.7267 61° Northeast 505 581 23,000  Level New York Center
10:45PM 39.8733 -74.5658 59° Northeast 510 587 23,000  Level New York Center
10:46PM 39.9428 -74.4150 59° Northeast 516 594 23,000 -60 Level New York Center
10:47PM 40.0164 -74.2483 60° Northeast 521 600 22,900  Descending New York Center
10:48PM 40.0878 -74.0864 60° Northeast 516 594 23,000 -480 Climbing New York Center
10:50PM 40.2358 -73.7583 59° Northeast 521 600 21,500 -1,380 Descending Boston Center
10:51PM 40.3042 -73.5992 61° Northeast 510 587 18,800 -2,340 Descending Boston Center
10:52PM 40.3764 -73.4725 53° Northeast 470 541 16,900 -960 Descending Boston Center
10:53PM 40.4811 -73.4169 22° Northeast 417 480 16,900  Level Boston Center
10:54PM 40.5897 -73.3775 15° North 396 456 16,900 -420 Level Boston Center
10:55PM 40.6833 -73.3500 13° North 332 382 16,200 -960 Descending New York TRACON
10:56PM 40.7667 -73.3167 17° North 331 381 15,200 -1,200 Descending New York TRACON
10:57PM 40.8333 -73.2333 43° Northeast 332 382 13,800 -1,320 Descending New York TRACON
10:58PM 40.8667 -73.1500 62° Northeast 362 417 12,700 -1,500 Descending New York TRACON
10:59PM 40.9333 -73.0500 49° Northeast 304 350 10,900 -2,100 Descending New York TRACON
11:00PM 41.0000 -73.1000 330° Northwest 271 312 8,300 -2,700 Descending New York TRACON
11:01PM 41.0333 -73.1833 298° West 266 306 5,600 -2,160 Descending New York TRACON
11:02PM 41.0667 -73.2500 304° West 245 282 4,000 -1,020 Descending New York TRACON
11:03PM 41.1000 -73.3333 298° West 235 270 3,600 -480 Descending New York TRACON
11:04PM 41.1000 -73.4000 270° West 225 259 3,000 -300 Descending New York TRACON
11:05PM 41.0500 -73.4500 217° Southwest 220 253 3,000  Level New York TRACON
11:06PM 41.0000 -73.5167 225° Southwest 221 254 3,000 -300 Level New York TRACON
11:07PM 40.9833 -73.5667 246° West 216 249 2,500 -540 Descending New York TRACON
11:08PM 40.9833 -73.6333 270° West 199 229 2,000 -660 Descending New York TRACON
11:09PM 41.0333 -73.6833 323° Northwest 143 165 1,200 -780 Descending New York TRACON